sensor_id;sensor_type;location;lat;lon;timestamp;temperature;humidity
23683;DHT22;24897;53.514;10.482;2023-02-08T00:02:18;-2.30;99.90
23683;DHT22;24897;53.514;10.482;2023-02-08T00:05:02;-2.20;99.90
23683;DHT22;24897;53.514;10.482;2023-02-08T00:10:30;-3.00;99.90
23683;DHT22;24897;53.514;10.482;2023-02-08T00:13:15;-2.60;99.90
23683;DHT22;24897;53.514;10.482;2023-02-08T00:16:03;-2.90;99.90
23683;DHT22;24897;53.514;10.482;2023-02-08T00:18:47;-2.70;99.90
23683;DHT22;24897;53.514;10.482;2023-02-08T00:21:32;-2.60;99.90
23683;DHT22;24897;53.514;10.482;2023-02-08T00:24:16;-2.70;99.90
23683;DHT22;24897;53.514;10.482;2023-02-08T00:27:03;-2.70;99.90
23683;DHT22;24897;53.514;10.482;2023-02-08T00:29:47;-2.80;99.90
23683;DHT22;24897;53.514;10.482;2023-02-08T00:32:32;-2.60;99.90
23683;DHT22;24897;53.514;10.482;2023-02-08T00:35:16;-2.70;99.90
23683;DHT22;24897;53.514;10.482;2023-02-08T00:38:00;-2.70;99.90
23683;DHT22;24897;53.514;10.482;2023-02-08T00:40:44;-2.70;99.90
23683;DHT22;24897;53.514;10.482;2023-02-08T00:43:29;-2.70;99.90
23683;DHT22;24897;53.514;10.482;2023-02-08T00:46:13;-2.70;99.90
23683;DHT22;24897;53.514;10.482;2023-02-08T00:48:57;-2.70;99.90
23683;DHT22;24897;53.514;10.482;2023-02-08T00:51:41;-2.50;99.90
23683;DHT22;24897;53.514;10.482;2023-02-08T00:54:25;-2.70;99.90
23683;DHT22;24897;53.514;10.482;2023-02-08T00:57:09;-3.00;99.90
23683;DHT22;24897;53.514;10.482;2023-02-08T00:59:53;-2.70;99.90
23683;DHT22;24897;53.514;10.482;2023-02-08T01:02:38;-2.60;99.90
23683;DHT22;24897;53.514;10.482;2023-02-08T01:05:22;-2.60;99.90
23683;DHT22;24897;53.514;10.482;2023-02-08T01:08:06;-2.60;99.90
23683;DHT22;24897;53.514;10.482;2023-02-08T01:10:50;-2.50;99.90
23683;DHT22;24897;53.514;10.482;2023-02-08T01:13:36;-2.50;99.90
23683;DHT22;24897;53.514;10.482;2023-02-08T01:16:23;-2.50;99.90
23683;DHT22;24897;53.514;10.482;2023-02-08T01:19:10;-2.50;99.90
23683;DHT22;24897;53.514;10.482;2023-02-08T01:24:40;-2.60;99.90
23683;DHT22;24897;53.514;10.482;2023-02-08T01:27:24;-2.60;99.90
23683;DHT22;24897;53.514;10.482;2023-02-08T01:30:09;-2.60;99.90
23683;DHT22;24897;53.514;10.482;2023-02-08T01:32:53;-2.60;99.90
23683;DHT22;24897;53.514;10.482;2023-02-08T01:35:37;-2.60;99.90
23683;DHT22;24897;53.514;10.482;2023-02-08T01:38:21;-2.60;99.90
23683;DHT22;24897;53.514;10.482;2023-02-08T01:41:08;-2.60;99.90
23683;DHT22;24897;53.514;10.482;2023-02-08T01:43:59;-2.50;99.90
23683;DHT22;24897;53.514;10.482;2023-02-08T01:46:46;-2.60;99.90
23683;DHT22;24897;53.514;10.482;2023-02-08T01:49:34;-2.60;99.90
23683;DHT22;24897;53.514;10.482;2023-02-08T01:52:22;-2.60;99.90
23683;DHT22;24897;53.514;10.482;2023-02-08T01:55:19;-2.50;99.90
23683;DHT22;24897;53.514;10.482;2023-02-08T01:58:06;-2.60;99.90
23683;DHT22;24897;53.514;10.482;2023-02-08T02:00:51;-2.20;99.90
23683;DHT22;24897;53.514;10.482;2023-02-08T02:03:36;-2.50;99.90
23683;DHT22;24897;53.514;10.482;2023-02-08T02:06:32;-2.70;99.90
23683;DHT22;24897;53.514;10.482;2023-02-08T02:09:27;-2.50;99.90
23683;DHT22;24897;53.514;10.482;2023-02-08T02:12:13;-2.60;99.90
23683;DHT22;24897;53.514;10.482;2023-02-08T02:14:58;-2.70;99.90
23683;DHT22;24897;53.514;10.482;2023-02-08T02:17:44;-2.80;99.90
23683;DHT22;24897;53.514;10.482;2023-02-08T02:29:27;-2.90;99.90
23683;DHT22;24897;53.514;10.482;2023-02-08T02:35:27;-2.80;99.90
23683;DHT22;24897;53.514;10.482;2023-02-08T02:48:12;-2.90;99.90
23683;DHT22;24897;53.514;10.482;2023-02-08T02:54:25;-2.90;99.90
23683;DHT22;24897;53.514;10.482;2023-02-08T02:57:13;-3.00;99.90
23683;DHT22;24897;53.514;10.482;2023-02-08T03:00:05;-3.00;99.90
23683;DHT22;24897;53.514;10.482;2023-02-08T03:02:50;-3.00;99.90
23683;DHT22;24897;53.514;10.482;2023-02-08T03:05:34;-3.10;99.90
23683;DHT22;24897;53.514;10.482;2023-02-08T03:11:18;-3.20;99.90
23683;DHT22;24897;53.514;10.482;2023-02-08T03:17:14;-3.50;99.90
23683;DHT22;24897;53.514;10.482;2023-02-08T03:20:12;-3.40;99.90
23683;DHT22;24897;53.514;10.482;2023-02-08T03:22:59;-3.30;99.90
23683;DHT22;24897;53.514;10.482;2023-02-08T03:28:56;-3.40;99.90
23683;DHT22;24897;53.514;10.482;2023-02-08T03:31:52;-3.90;99.90
23683;DHT22;24897;53.514;10.482;2023-02-08T03:37:30;-3.20;99.90
23683;DHT22;24897;53.514;10.482;2023-02-08T03:40:26;-2.50;99.90
23683;DHT22;24897;53.514;10.482;2023-02-08T03:43:26;-3.20;99.90
23683;DHT22;24897;53.514;10.482;2023-02-08T03:46:28;-3.20;99.90
23683;DHT22;24897;53.514;10.482;2023-02-08T03:49:17;-3.40;99.90
23683;DHT22;24897;53.514;10.482;2023-02-08T03:52:07;-3.40;99.90
23683;DHT22;24897;53.514;10.482;2023-02-08T03:55:06;-3.50;99.90
23683;DHT22;24897;53.514;10.482;2023-02-08T03:58:12;-3.40;99.90
23683;DHT22;24897;53.514;10.482;2023-02-08T04:01:12;-3.40;99.90
23683;DHT22;24897;53.514;10.482;2023-02-08T04:03:58;-3.40;99.90
23683;DHT22;24897;53.514;10.482;2023-02-08T04:06:42;-3.40;99.90
23683;DHT22;24897;53.514;10.482;2023-02-08T04:09:27;-3.40;99.90
23683;DHT22;24897;53.514;10.482;2023-02-08T04:12:11;-3.40;99.90
23683;DHT22;24897;53.514;10.482;2023-02-08T04:14:55;-3.40;99.90
23683;DHT22;24897;53.514;10.482;2023-02-08T04:17:39;-3.40;99.90
23683;DHT22;24897;53.514;10.482;2023-02-08T04:20:23;-3.40;99.90
23683;DHT22;24897;53.514;10.482;2023-02-08T04:23:08;-3.40;99.90
23683;DHT22;24897;53.514;10.482;2023-02-08T04:25:52;-3.40;99.90
23683;DHT22;24897;53.514;10.482;2023-02-08T04:28:37;-3.40;99.90
23683;DHT22;24897;53.514;10.482;2023-02-08T04:31:21;-3.40;99.90
23683;DHT22;24897;53.514;10.482;2023-02-08T04:34:05;-3.40;99.90
23683;DHT22;24897;53.514;10.482;2023-02-08T04:36:49;-3.40;99.90
23683;DHT22;24897;53.514;10.482;2023-02-08T04:39:33;-3.40;99.90
23683;DHT22;24897;53.514;10.482;2023-02-08T04:42:18;-3.40;99.90
23683;DHT22;24897;53.514;10.482;2023-02-08T04:45:02;-3.40;99.90
23683;DHT22;24897;53.514;10.482;2023-02-08T04:47:46;-3.00;99.90
23683;DHT22;24897;53.514;10.482;2023-02-08T04:50:31;-3.40;99.90
23683;DHT22;24897;53.514;10.482;2023-02-08T04:53:15;-3.70;99.90
23683;DHT22;24897;53.514;10.482;2023-02-08T04:55:59;-3.90;99.90
23683;DHT22;24897;53.514;10.482;2023-02-08T04:58:43;-3.80;99.90
23683;DHT22;24897;53.514;10.482;2023-02-08T05:01:27;-3.50;99.90
23683;DHT22;24897;53.514;10.482;2023-02-08T05:04:11;-3.50;99.90
23683;DHT22;24897;53.514;10.482;2023-02-08T05:06:55;-3.60;99.90
23683;DHT22;24897;53.514;10.482;2023-02-08T05:09:39;-3.50;99.90
23683;DHT22;24897;53.514;10.482;2023-02-08T05:12:24;-3.60;99.90
23683;DHT22;24897;53.514;10.482;2023-02-08T05:15:08;-2.60;99.90
23683;DHT22;24897;53.514;10.482;2023-02-08T05:17:53;-3.50;99.90
23683;DHT22;24897;53.514;10.482;2023-02-08T05:20:37;-3.70;99.90
23683;DHT22;24897;53.514;10.482;2023-02-08T05:23:21;-3.60;99.90
23683;DHT22;24897;53.514;10.482;2023-02-08T05:26:06;-3.80;99.90
23683;DHT22;24897;53.514;10.482;2023-02-08T05:28:54;-4.30;99.90
23683;DHT22;24897;53.514;10.482;2023-02-08T05:31:39;-3.20;99.90
23683;DHT22;24897;53.514;10.482;2023-02-08T05:34:23;-3.30;99.90
23683;DHT22;24897;53.514;10.482;2023-02-08T05:37:07;-3.80;99.90
23683;DHT22;24897;53.514;10.482;2023-02-08T05:39:52;-3.50;99.90
23683;DHT22;24897;53.514;10.482;2023-02-08T05:42:36;-3.30;99.90
23683;DHT22;24897;53.514;10.482;2023-02-08T05:45:20;-3.90;99.90
23683;DHT22;24897;53.514;10.482;2023-02-08T05:48:04;-3.40;99.90
23683;DHT22;24897;53.514;10.482;2023-02-08T05:50:48;-3.50;99.90
23683;DHT22;24897;53.514;10.482;2023-02-08T05:53:33;-3.40;99.90
23683;DHT22;24897;53.514;10.482;2023-02-08T05:56:17;-3.20;99.90
23683;DHT22;24897;53.514;10.482;2023-02-08T05:59:02;-3.00;99.90
23683;DHT22;24897;53.514;10.482;2023-02-08T06:01:46;-3.90;99.90
23683;DHT22;24897;53.514;10.482;2023-02-08T06:09:59;-3.40;99.90
23683;DHT22;24897;53.514;10.482;2023-02-08T06:15:29;-3.20;99.90
23683;DHT22;24897;53.514;10.482;2023-02-08T06:18:13;-2.10;99.90
23683;DHT22;24897;53.514;10.482;2023-02-08T06:20:57;-3.60;99.90
23683;DHT22;24897;53.514;10.482;2023-02-08T06:26:26;-3.30;99.90
23683;DHT22;24897;53.514;10.482;2023-02-08T06:31:58;-3.50;99.90
23683;DHT22;24897;53.514;10.482;2023-02-08T06:37:26;-1.90;99.90
23683;DHT22;24897;53.514;10.482;2023-02-08T06:42:55;-3.50;99.90
23683;DHT22;24897;53.514;10.482;2023-02-08T06:45:39;-3.50;99.90
23683;DHT22;24897;53.514;10.482;2023-02-08T06:51:08;-3.10;99.90
23683;DHT22;24897;53.514;10.482;2023-02-08T06:53:52;-3.60;99.90
23683;DHT22;24897;53.514;10.482;2023-02-08T06:56:36;-3.40;99.90
23683;DHT22;24897;53.514;10.482;2023-02-08T06:59:20;-3.40;99.90
23683;DHT22;24897;53.514;10.482;2023-02-08T07:10:18;-3.30;99.90
23683;DHT22;24897;53.514;10.482;2023-02-08T07:15:47;-3.20;99.90
23683;DHT22;24897;53.514;10.482;2023-02-08T07:18:31;-3.60;99.90
23683;DHT22;24897;53.514;10.482;2023-02-08T07:21:16;-3.30;99.90
23683;DHT22;24897;53.514;10.482;2023-02-08T07:24:02;-1.70;99.90
23683;DHT22;24897;53.514;10.482;2023-02-08T07:29:32;-3.10;99.90
23683;DHT22;24897;53.514;10.482;2023-02-08T07:32:16;-3.00;99.90
23683;DHT22;24897;53.514;10.482;2023-02-08T07:35:00;-3.00;99.90
23683;DHT22;24897;53.514;10.482;2023-02-08T07:37:45;-3.00;99.90
23683;DHT22;24897;53.514;10.482;2023-02-08T07:40:29;-2.30;99.90
23683;DHT22;24897;53.514;10.482;2023-02-08T07:46:05;-2.70;99.90
23683;DHT22;24897;53.514;10.482;2023-02-08T07:48:49;-2.30;99.90
23683;DHT22;24897;53.514;10.482;2023-02-08T07:51:34;-2.60;99.90
23683;DHT22;24897;53.514;10.482;2023-02-08T07:54:18;-3.10;99.90
23683;DHT22;24897;53.514;10.482;2023-02-08T07:57:02;-2.30;99.90
23683;DHT22;24897;53.514;10.482;2023-02-08T07:59:47;-2.40;99.90
23683;DHT22;24897;53.514;10.482;2023-02-08T08:05:19;-2.20;99.90
23683;DHT22;24897;53.514;10.482;2023-02-08T08:10:49;-2.60;99.90
23683;DHT22;24897;53.514;10.482;2023-02-08T08:13:33;-1.60;99.90
23683;DHT22;24897;53.514;10.482;2023-02-08T08:16:18;-2.00;99.90
23683;DHT22;24897;53.514;10.482;2023-02-08T08:19:02;-1.60;99.90
23683;DHT22;24897;53.514;10.482;2023-02-08T08:21:46;-2.80;99.90
23683;DHT22;24897;53.514;10.482;2023-02-08T08:27:18;-2.30;99.90
23683;DHT22;24897;53.514;10.482;2023-02-08T08:30:04;-1.50;99.90
23683;DHT22;24897;53.514;10.482;2023-02-08T08:32:49;-2.00;99.90
23683;DHT22;24897;53.514;10.482;2023-02-08T08:41:06;-0.90;99.90
23683;DHT22;24897;53.514;10.482;2023-02-08T08:43:51;-1.60;99.90
23683;DHT22;24897;53.514;10.482;2023-02-08T08:46:38;-0.90;99.90
23683;DHT22;24897;53.514;10.482;2023-02-08T08:49:23;-1.50;99.90
23683;DHT22;24897;53.514;10.482;2023-02-08T08:52:09;-0.60;99.90
23683;DHT22;24897;53.514;10.482;2023-02-08T09:00:22;0.70;99.90
23683;DHT22;24897;53.514;10.482;2023-02-08T09:03:06;1.20;99.90
23683;DHT22;24897;53.514;10.482;2023-02-08T09:05:51;1.10;99.90
23683;DHT22;24897;53.514;10.482;2023-02-08T09:08:35;2.60;99.90
23683;DHT22;24897;53.514;10.482;2023-02-08T09:11:19;1.80;99.90
23683;DHT22;24897;53.514;10.482;2023-02-08T09:14:05;2.20;99.90
23683;DHT22;24897;53.514;10.482;2023-02-08T09:16:53;2.00;99.90
23683;DHT22;24897;53.514;10.482;2023-02-08T09:19:38;2.10;99.90
23683;DHT22;24897;53.514;10.482;2023-02-08T09:22:22;2.10;99.90
23683;DHT22;24897;53.514;10.482;2023-02-08T09:33:20;2.60;99.90
23683;DHT22;24897;53.514;10.482;2023-02-08T09:36:04;2.70;99.90
23683;DHT22;24897;53.514;10.482;2023-02-08T09:38:53;3.20;99.90
23683;DHT22;24897;53.514;10.482;2023-02-08T09:41:54;3.40;99.90
23683;DHT22;24897;53.514;10.482;2023-02-08T09:47:53;3.80;99.90
23683;DHT22;24897;53.514;10.482;2023-02-08T09:51:11;3.60;99.90
23683;DHT22;24897;53.514;10.482;2023-02-08T09:54:18;4.70;99.90
23683;DHT22;24897;53.514;10.482;2023-02-08T09:57:07;4.60;99.90
23683;DHT22;24897;53.514;10.482;2023-02-08T09:59:56;4.30;99.90
23683;DHT22;24897;53.514;10.482;2023-02-08T10:02:43;6.20;99.90
23683;DHT22;24897;53.514;10.482;2023-02-08T10:05:29;6.70;99.90
23683;DHT22;24897;53.514;10.482;2023-02-08T10:08:14;7.50;99.90
23683;DHT22;24897;53.514;10.482;2023-02-08T10:11:24;6.80;99.90
23683;DHT22;24897;53.514;10.482;2023-02-08T10:17:49;7.50;99.90
23683;DHT22;24897;53.514;10.482;2023-02-08T10:26:48;7.70;99.90
23683;DHT22;24897;53.514;10.482;2023-02-08T10:29:55;8.20;99.90
23683;DHT22;24897;53.514;10.482;2023-02-08T10:33:35;8.20;99.90
23683;DHT22;24897;53.514;10.482;2023-02-08T10:35:54;8.10;99.90
23683;DHT22;24897;53.514;10.482;2023-02-08T10:38:39;8.30;99.90
23683;DHT22;24897;53.514;10.482;2023-02-08T10:41:31;8.60;99.90
23683;DHT22;24897;53.514;10.482;2023-02-08T10:47:37;9.20;99.90
23683;DHT22;24897;53.514;10.482;2023-02-08T10:53:17;9.70;99.90
23683;DHT22;24897;53.514;10.482;2023-02-08T10:56:03;9.60;99.90
23683;DHT22;24897;53.514;10.482;2023-02-08T10:58:48;9.60;99.90
23683;DHT22;24897;53.514;10.482;2023-02-08T11:01:32;10.00;99.90
23683;DHT22;24897;53.514;10.482;2023-02-08T11:04:18;9.50;99.90
23683;DHT22;24897;53.514;10.482;2023-02-08T11:07:18;9.60;99.90
23683;DHT22;24897;53.514;10.482;2023-02-08T11:13:14;9.70;99.90
23683;DHT22;24897;53.514;10.482;2023-02-08T11:16:02;10.10;99.90
23683;DHT22;24897;53.514;10.482;2023-02-08T11:18:53;10.40;99.90
23683;DHT22;24897;53.514;10.482;2023-02-08T11:21:40;10.50;99.90
23683;DHT22;24897;53.514;10.482;2023-02-08T11:24:34;10.10;99.90
23683;DHT22;24897;53.514;10.482;2023-02-08T11:27:41;10.30;99.90
23683;DHT22;24897;53.514;10.482;2023-02-08T11:30:34;10.40;99.90
23683;DHT22;24897;53.514;10.482;2023-02-08T11:33:19;10.00;99.90
23683;DHT22;24897;53.514;10.482;2023-02-08T11:36:07;10.30;99.90
23683;DHT22;24897;53.514;10.482;2023-02-08T11:38:56;10.20;99.90
23683;DHT22;24897;53.514;10.482;2023-02-08T11:41:45;9.50;99.90
23683;DHT22;24897;53.514;10.482;2023-02-08T11:44:36;9.70;99.90
23683;DHT22;24897;53.514;10.482;2023-02-08T11:47:36;10.10;99.90
23683;DHT22;24897;53.514;10.482;2023-02-08T11:53:27;10.10;99.90
23683;DHT22;24897;53.514;10.482;2023-02-08T11:56:31;10.80;99.90
23683;DHT22;24897;53.514;10.482;2023-02-08T11:59:21;10.90;99.90
23683;DHT22;24897;53.514;10.482;2023-02-08T12:02:34;10.90;99.90
23683;DHT22;24897;53.514;10.482;2023-02-08T12:05:23;11.10;99.90
23683;DHT22;24897;53.514;10.482;2023-02-08T12:08:41;10.90;99.90
23683;DHT22;24897;53.514;10.482;2023-02-08T12:26:39;11.80;99.90
23683;DHT22;24897;53.514;10.482;2023-02-08T12:36:00;11.50;99.90
23683;DHT22;24897;53.514;10.482;2023-02-08T12:42:05;11.10;99.90
23683;DHT22;24897;53.514;10.482;2023-02-08T12:53:55;11.40;99.90
23683;DHT22;24897;53.514;10.482;2023-02-08T12:56:44;11.40;99.90
23683;DHT22;24897;53.514;10.482;2023-02-08T12:59:50;11.10;99.90
23683;DHT22;24897;53.514;10.482;2023-02-08T13:06:00;11.50;99.90
23683;DHT22;24897;53.514;10.482;2023-02-08T13:08:54;11.10;99.90
23683;DHT22;24897;53.514;10.482;2023-02-08T13:11:49;10.80;99.90
23683;DHT22;24897;53.514;10.482;2023-02-08T13:17:46;11.30;99.90
23683;DHT22;24897;53.514;10.482;2023-02-08T13:20:42;10.00;99.90
23683;DHT22;24897;53.514;10.482;2023-02-08T13:23:40;11.40;99.90
23683;DHT22;24897;53.514;10.482;2023-02-08T13:26:27;11.10;99.90
23683;DHT22;24897;53.514;10.482;2023-02-08T13:29:18;11.40;99.90
23683;DHT22;24897;53.514;10.482;2023-02-08T13:32:10;11.50;99.90
23683;DHT22;24897;53.514;10.482;2023-02-08T13:35:04;11.90;99.90
23683;DHT22;24897;53.514;10.482;2023-02-08T13:37:54;12.30;99.90
23683;DHT22;24897;53.514;10.482;2023-02-08T13:40:40;12.50;99.90
23683;DHT22;24897;53.514;10.482;2023-02-08T13:43:51;12.30;99.90
23683;DHT22;24897;53.514;10.482;2023-02-08T13:46:46;12.10;99.90
23683;DHT22;24897;53.514;10.482;2023-02-08T14:01:17;11.90;99.90
23683;DHT22;24897;53.514;10.482;2023-02-08T14:06:58;11.20;99.90
23683;DHT22;24897;53.514;10.482;2023-02-08T14:12:53;10.90;99.90
23683;DHT22;24897;53.514;10.482;2023-02-08T14:15:39;10.40;99.90
23683;DHT22;24897;53.514;10.482;2023-02-08T14:18:25;9.80;99.90
23683;DHT22;24897;53.514;10.482;2023-02-08T14:24:21;9.60;99.90
23683;DHT22;24897;53.514;10.482;2023-02-08T14:30:29;8.70;99.90
23683;DHT22;24897;53.514;10.482;2023-02-08T14:33:20;8.50;99.90
23683;DHT22;24897;53.514;10.482;2023-02-08T14:36:18;8.40;99.90
23683;DHT22;24897;53.514;10.482;2023-02-08T14:41:55;8.30;99.90
23683;DHT22;24897;53.514;10.482;2023-02-08T14:45:00;8.30;99.90
23683;DHT22;24897;53.514;10.482;2023-02-08T14:50:35;7.70;99.90
23683;DHT22;24897;53.514;10.482;2023-02-08T14:53:28;7.20;99.90
23683;DHT22;24897;53.514;10.482;2023-02-08T14:56:24;6.80;99.90
23683;DHT22;24897;53.514;10.482;2023-02-08T14:59:14;6.50;99.90
23683;DHT22;24897;53.514;10.482;2023-02-08T15:02:10;6.20;99.90
23683;DHT22;24897;53.514;10.482;2023-02-08T15:04:56;6.10;99.90
23683;DHT22;24897;53.514;10.482;2023-02-08T15:07:42;5.90;99.90
23683;DHT22;24897;53.514;10.482;2023-02-08T15:10:31;5.80;99.90
23683;DHT22;24897;53.514;10.482;2023-02-08T15:13:21;5.40;99.90
23683;DHT22;24897;53.514;10.482;2023-02-08T15:16:11;5.60;99.90
23683;DHT22;24897;53.514;10.482;2023-02-08T15:18:57;5.50;99.90
23683;DHT22;24897;53.514;10.482;2023-02-08T15:21:41;5.40;99.90
23683;DHT22;24897;53.514;10.482;2023-02-08T15:24:28;5.30;99.90
23683;DHT22;24897;53.514;10.482;2023-02-08T15:27:20;5.20;99.90
23683;DHT22;24897;53.514;10.482;2023-02-08T15:30:24;5.20;99.90
23683;DHT22;24897;53.514;10.482;2023-02-08T15:33:14;5.10;99.90
23683;DHT22;24897;53.514;10.482;2023-02-08T15:36:05;5.00;99.90
23683;DHT22;24897;53.514;10.482;2023-02-08T15:38:50;5.70;99.90
23683;DHT22;24897;53.514;10.482;2023-02-08T15:41:34;4.30;99.90
23683;DHT22;24897;53.514;10.482;2023-02-08T15:44:24;4.00;99.90
23683;DHT22;24897;53.514;10.482;2023-02-08T15:47:18;5.60;99.90
23683;DHT22;24897;53.514;10.482;2023-02-08T15:50:06;4.40;99.90
23683;DHT22;24897;53.514;10.482;2023-02-08T15:53:03;4.40;99.90
23683;DHT22;24897;53.514;10.482;2023-02-08T15:55:52;3.40;99.90
23683;DHT22;24897;53.514;10.482;2023-02-08T15:58:44;4.10;99.90
23683;DHT22;24897;53.514;10.482;2023-02-08T16:01:30;4.10;99.90
23683;DHT22;24897;53.514;10.482;2023-02-08T16:04:15;4.00;99.90
23683;DHT22;24897;53.514;10.482;2023-02-08T16:07:00;4.20;99.90
23683;DHT22;24897;53.514;10.482;2023-02-08T16:09:46;3.70;99.90
23683;DHT22;24897;53.514;10.482;2023-02-08T16:12:31;3.30;99.90
23683;DHT22;24897;53.514;10.482;2023-02-08T16:15:39;3.50;99.90
23683;DHT22;24897;53.514;10.482;2023-02-08T16:18:31;3.50;99.90
23683;DHT22;24897;53.514;10.482;2023-02-08T16:21:21;4.00;99.90
23683;DHT22;24897;53.514;10.482;2023-02-08T16:27:05;3.30;99.90
23683;DHT22;24897;53.514;10.482;2023-02-08T16:29:50;3.30;99.90
23683;DHT22;24897;53.514;10.482;2023-02-08T16:32:35;2.90;99.90
23683;DHT22;24897;53.514;10.482;2023-02-08T16:35:25;2.50;99.90
23683;DHT22;24897;53.514;10.482;2023-02-08T16:38:22;3.00;99.90
23683;DHT22;24897;53.514;10.482;2023-02-08T16:41:12;2.60;99.90
23683;DHT22;24897;53.514;10.482;2023-02-08T16:44:17;2.80;99.90
23683;DHT22;24897;53.514;10.482;2023-02-08T16:47:26;2.80;99.90
23683;DHT22;24897;53.514;10.482;2023-02-08T16:50:15;2.80;99.90
23683;DHT22;24897;53.514;10.482;2023-02-08T16:53:01;2.70;99.90
23683;DHT22;24897;53.514;10.482;2023-02-08T16:55:46;2.70;99.90
23683;DHT22;24897;53.514;10.482;2023-02-08T16:58:30;2.60;99.90
23683;DHT22;24897;53.514;10.482;2023-02-08T17:01:14;2.60;99.90
23683;DHT22;24897;53.514;10.482;2023-02-08T17:03:58;2.50;99.90
23683;DHT22;24897;53.514;10.482;2023-02-08T17:06:44;2.50;99.90
23683;DHT22;24897;53.514;10.482;2023-02-08T17:09:29;1.90;99.90
23683;DHT22;24897;53.514;10.482;2023-02-08T17:12:13;2.30;99.90
23683;DHT22;24897;53.514;10.482;2023-02-08T17:14:57;2.30;99.90
23683;DHT22;24897;53.514;10.482;2023-02-08T17:17:41;2.30;99.90
23683;DHT22;24897;53.514;10.482;2023-02-08T17:20:29;2.20;99.90
23683;DHT22;24897;53.514;10.482;2023-02-08T17:25:58;2.20;99.90
23683;DHT22;24897;53.514;10.482;2023-02-08T17:28:43;2.20;99.90
23683;DHT22;24897;53.514;10.482;2023-02-08T17:31:27;2.20;99.90
23683;DHT22;24897;53.514;10.482;2023-02-08T17:34:17;2.10;99.90
23683;DHT22;24897;53.514;10.482;2023-02-08T17:37:02;2.10;99.90
23683;DHT22;24897;53.514;10.482;2023-02-08T17:39:49;2.10;99.90
23683;DHT22;24897;53.514;10.482;2023-02-08T17:42:33;2.00;99.90
23683;DHT22;24897;53.514;10.482;2023-02-08T17:45:17;2.00;99.90
23683;DHT22;24897;53.514;10.482;2023-02-08T17:48:02;1.90;99.90
23683;DHT22;24897;53.514;10.482;2023-02-08T17:50:46;1.90;99.90
23683;DHT22;24897;53.514;10.482;2023-02-08T17:53:35;1.90;99.90
23683;DHT22;24897;53.514;10.482;2023-02-08T17:56:26;1.90;99.90
23683;DHT22;24897;53.514;10.482;2023-02-08T17:59:10;1.80;99.90
23683;DHT22;24897;53.514;10.482;2023-02-08T18:01:55;1.80;99.90
23683;DHT22;24897;53.514;10.482;2023-02-08T18:04:39;1.80;99.90
23683;DHT22;24897;53.514;10.482;2023-02-08T18:07:23;1.80;99.90
23683;DHT22;24897;53.514;10.482;2023-02-08T18:10:09;1.80;99.90
23683;DHT22;24897;53.514;10.482;2023-02-08T18:12:53;1.80;99.90
23683;DHT22;24897;53.514;10.482;2023-02-08T18:15:37;1.70;99.90
23683;DHT22;24897;53.514;10.482;2023-02-08T18:18:21;1.70;99.90
23683;DHT22;24897;53.514;10.482;2023-02-08T18:21:10;1.60;99.90
23683;DHT22;24897;53.514;10.482;2023-02-08T18:23:55;1.60;99.90
23683;DHT22;24897;53.514;10.482;2023-02-08T18:26:42;1.60;99.90
23683;DHT22;24897;53.514;10.482;2023-02-08T18:29:27;1.50;99.90
23683;DHT22;24897;53.514;10.482;2023-02-08T18:32:11;1.40;99.90
23683;DHT22;24897;53.514;10.482;2023-02-08T18:34:56;1.10;99.90
23683;DHT22;24897;53.514;10.482;2023-02-08T18:37:40;1.30;99.90
23683;DHT22;24897;53.514;10.482;2023-02-08T18:40:24;1.40;99.90
23683;DHT22;24897;53.514;10.482;2023-02-08T18:43:08;1.30;99.90
23683;DHT22;24897;53.514;10.482;2023-02-08T18:45:58;1.30;99.90
23683;DHT22;24897;53.514;10.482;2023-02-08T18:48:43;1.20;99.90
23683;DHT22;24897;53.514;10.482;2023-02-08T18:51:28;1.20;99.90
23683;DHT22;24897;53.514;10.482;2023-02-08T18:54:16;1.20;99.90
23683;DHT22;24897;53.514;10.482;2023-02-08T18:57:00;1.20;99.90
23683;DHT22;24897;53.514;10.482;2023-02-08T18:59:44;1.20;99.90
23683;DHT22;24897;53.514;10.482;2023-02-08T19:02:28;1.10;99.90
23683;DHT22;24897;53.514;10.482;2023-02-08T19:07:57;2.20;99.90
23683;DHT22;24897;53.514;10.482;2023-02-08T19:10:42;1.10;99.90
23683;DHT22;24897;53.514;10.482;2023-02-08T19:13:26;1.00;99.90
23683;DHT22;24897;53.514;10.482;2023-02-08T19:16:12;1.00;99.90
23683;DHT22;24897;53.514;10.482;2023-02-08T19:18:57;0.90;99.90
23683;DHT22;24897;53.514;10.482;2023-02-08T19:21:42;1.00;99.90
23683;DHT22;24897;53.514;10.482;2023-02-08T19:24:26;0.90;99.90
23683;DHT22;24897;53.514;10.482;2023-02-08T19:27:10;0.90;99.90
23683;DHT22;24897;53.514;10.482;2023-02-08T19:29:55;0.90;99.90
23683;DHT22;24897;53.514;10.482;2023-02-08T19:32:39;0.80;99.90
23683;DHT22;24897;53.514;10.482;2023-02-08T19:35:23;0.90;99.90
23683;DHT22;24897;53.514;10.482;2023-02-08T19:38:08;0.90;99.90
23683;DHT22;24897;53.514;10.482;2023-02-08T19:40:53;0.90;99.90
23683;DHT22;24897;53.514;10.482;2023-02-08T19:46:23;0.70;99.90
23683;DHT22;24897;53.514;10.482;2023-02-08T19:49:11;0.60;99.90
23683;DHT22;24897;53.514;10.482;2023-02-08T19:51:55;1.00;99.90
23683;DHT22;24897;53.514;10.482;2023-02-08T19:54:40;0.70;99.90
23683;DHT22;24897;53.514;10.482;2023-02-08T20:00:09;0.80;99.90
23683;DHT22;24897;53.514;10.482;2023-02-08T20:02:53;0.60;99.90
23683;DHT22;24897;53.514;10.482;2023-02-08T20:05:37;0.70;99.90
23683;DHT22;24897;53.514;10.482;2023-02-08T20:08:24;0.90;99.90
23683;DHT22;24897;53.514;10.482;2023-02-08T20:14:05;0.80;99.90
23683;DHT22;24897;53.514;10.482;2023-02-08T20:16:50;0.60;99.90
23683;DHT22;24897;53.514;10.482;2023-02-08T20:19:37;0.80;99.90
23683;DHT22;24897;53.514;10.482;2023-02-08T20:22:21;0.70;99.90
23683;DHT22;24897;53.514;10.482;2023-02-08T20:25:06;0.50;99.90
23683;DHT22;24897;53.514;10.482;2023-02-08T20:30:34;0.30;99.90
23683;DHT22;24897;53.514;10.482;2023-02-08T20:33:19;1.30;99.90
23683;DHT22;24897;53.514;10.482;2023-02-08T20:36:08;0.40;99.90
23683;DHT22;24897;53.514;10.482;2023-02-08T20:38:56;0.40;99.90
23683;DHT22;24897;53.514;10.482;2023-02-08T20:41:40;0.40;99.90
23683;DHT22;24897;53.514;10.482;2023-02-08T20:44:28;0.40;99.90
23683;DHT22;24897;53.514;10.482;2023-02-08T20:47:14;0.40;99.90
23683;DHT22;24897;53.514;10.482;2023-02-08T20:50:02;0.30;99.90
23683;DHT22;24897;53.514;10.482;2023-02-08T20:52:48;0.30;99.90
23683;DHT22;24897;53.514;10.482;2023-02-08T20:55:33;0.30;99.90
23683;DHT22;24897;53.514;10.482;2023-02-08T20:58:17;-0.20;99.90
23683;DHT22;24897;53.514;10.482;2023-02-08T21:01:01;0.50;99.90
23683;DHT22;24897;53.514;10.482;2023-02-08T21:03:51;0.30;99.90
23683;DHT22;24897;53.514;10.482;2023-02-08T21:06:36;0.10;99.90
23683;DHT22;24897;53.514;10.482;2023-02-08T21:12:05;0.20;99.90
23683;DHT22;24897;53.514;10.482;2023-02-08T21:14:49;0.00;99.90
23683;DHT22;24897;53.514;10.482;2023-02-08T21:20:18;-0.30;99.90